Time;durP1;ratioP1;P1;durP2;ratioP2;P2;SDS_P1;SDS_P2;PMS_P1;PMS_P2;Temp;Humidity;BMP_temperature;BMP_pressure;BME280_temperature;BME280_humidity;BME280_pressure;Samples;Min_cycle;Max_cycle;Signal;HPM_P1;HPM_P2
2023/06/01 00:01:52;;;;;;;4.93;4.50;;;17.50;99.90;;;;;;5137380;27;20194;-47
2023/06/01 00:04:18;;;;;;;6.00;5.40;;;17.50;99.90;;;;;;5135951;27;20445;-46
2023/06/01 00:06:44;;;;;;;7.67;5.40;;;17.40;99.90;;;;;;5137378;27;20481;-47
2023/06/01 00:09:09;;;;;;;5.67;5.03;;;17.40;99.90;;;;;;5119448;27;20213;-47
2023/06/01 00:11:35;;;;;;;6.97;5.20;;;17.30;99.90;;;;;;5138235;27;20795;-45
2023/06/01 00:14:01;;;;;;;5.90;5.30;;;17.20;99.90;;;;;;5120700;27;20189;-46
2023/06/01 00:16:27;;;;;;;5.80;5.20;;;17.00;99.90;;;;;;5138104;27;20433;-45
2023/06/01 00:18:55;;;;;;;5.40;4.83;;;16.90;99.90;;;;;;5138682;27;20428;-46
2023/06/01 00:21:21;;;;;;;6.60;5.90;;;16.80;99.90;;;;;;5138881;27;20504;-46
2023/06/01 00:23:47;;;;;;;7.17;5.10;;;16.80;99.90;;;;;;5120656;27;20839;-47
2023/06/01 00:26:13;;;;;;;5.03;4.47;;;16.80;99.90;;;;;;5138939;27;20254;-47
2023/06/01 00:28:39;;;;;;;5.60;5.07;;;16.80;99.90;;;;;;5138947;27;20460;-47
2023/06/01 00:31:05;;;;;;;5.97;4.73;;;16.80;99.90;;;;;;5138217;27;20872;-47
2023/06/01 00:33:31;;;;;;;6.57;4.80;;;16.90;99.90;;;;;;5137415;27;20221;-48
2023/06/01 00:35:56;;;;;;;5.23;4.73;;;16.80;99.90;;;;;;5138694;27;20463;-48
2023/06/01 00:38:23;;;;;;;6.97;5.00;;;16.90;99.90;;;;;;5138822;27;20219;-48
2023/06/01 00:40:50;;;;;;;5.43;4.53;;;16.90;1.00;;;;;;5137991;27;20874;-47
2023/06/01 00:43:16;;;;;;;8.30;5.03;;;16.90;1.00;;;;;;5138655;27;20191;-47
2023/06/01 00:45:42;;;;;;;6.67;4.67;;;16.90;1.00;;;;;;5138106;27;20555;-47
2023/06/01 00:48:08;;;;;;;5.13;4.30;;;17.00;1.00;;;;;;5137830;27;20527;-48
2023/06/01 00:50:33;;;;;;;6.40;5.37;;;17.00;1.00;;;;;;5118359;27;20183;-46
2023/06/01 00:53:00;;;;;;;6.30;5.33;;;17.00;1.00;;;;;;5137257;27;20175;-49
2023/06/01 00:55:27;;;;;;;6.17;4.70;;;16.90;1.00;;;;;;5136352;27;20289;-47
2023/06/01 00:57:55;;;;;;;6.30;5.20;;;16.80;1.00;;;;;;5136627;27;20463;-47
2023/06/01 01:00:22;;;;;;;7.07;4.50;;;16.70;1.00;;;;;;5136681;27;20424;-48
2023/06/01 01:02:51;;;;;;;8.10;5.60;;;16.60;1.00;;;;;;5118913;27;20452;-49
2023/06/01 01:05:17;;;;;;;6.67;4.77;;;16.60;1.00;;;;;;5118950;27;20762;-47
2023/06/01 01:07:52;;;;;;;6.00;4.23;;;16.50;1.00;;;;;;5136531;27;20435;-50
2023/06/01 01:10:45;;;;;;;7.47;5.30;;;16.50;1.00;;;;;;5137175;27;20504;-47
2023/06/01 01:13:23;;;;;;;9.80;5.47;;;16.50;1.00;;;;;;5119734;27;20424;-47
2023/06/01 01:15:59;;;;;;;5.43;4.93;;;16.50;1.00;;;;;;5120472;27;20794;-46
2023/06/01 01:18:33;;;;;;;5.27;4.60;;;16.50;1.00;;;;;;5138097;27;20493;-49
2023/06/01 01:21:02;;;;;;;5.17;4.77;;;16.50;1.00;;;;;;5119946;27;20476;-47
2023/06/01 01:23:49;;;;;;;5.57;4.50;;;16.40;1.00;;;;;;5138730;27;20698;-48
2023/06/01 01:26:36;;;;;;;5.93;4.33;;;16.30;1.00;;;;;;5138403;27;20468;-49
2023/06/01 01:29:06;;;;;;;5.63;4.83;;;16.20;1.00;;;;;;5120049;27;20470;-54
2023/06/01 01:31:32;;;;;;;4.63;4.07;;;16.10;1.00;;;;;;5138448;27;20446;-48
2023/06/01 01:33:58;;;;;;;5.53;4.90;;;16.10;1.00;;;;;;5138883;27;20690;-46
2023/06/01 01:36:24;;;;;;;6.10;5.33;;;16.10;1.00;;;;;;5138562;27;20416;-47
2023/06/01 01:38:50;;;;;;;6.10;5.27;;;16.10;1.00;;;;;;5135581;27;20187;-46
2023/06/01 01:41:16;;;;;;;5.70;5.20;;;16.00;1.00;;;;;;5115543;28;20479;-45
2023/06/01 01:43:42;;;;;;;4.77;4.27;;;16.00;1.00;;;;;;5116099;28;20190;-47
2023/06/01 01:46:18;;;;;;;5.33;4.83;;;16.10;1.00;;;;;;5098361;28;20305;-46
2023/06/01 01:48:56;;;;;;;5.73;5.17;;;16.00;1.00;;;;;;5116639;28;20409;-46
2023/06/01 01:51:37;;;;;;;9.20;5.40;;;16.00;1.00;;;;;;5118748;28;20455;-49
2023/06/01 01:54:06;;;;;;;7.70;4.83;;;15.90;1.00;;;;;;5104394;28;20481;-46
2023/06/01 01:56:32;;;;;;;5.10;4.60;;;15.80;1.00;;;;;;5103987;28;20417;-47
2023/06/01 01:58:58;;;;;;;5.73;4.83;;;15.80;1.00;;;;;;5104566;28;20896;-47
2023/06/01 02:01:24;;;;;;;5.40;4.20;;;15.80;1.00;;;;;;5122565;28;20417;-49
2023/06/01 02:04:03;;;;;;;5.33;4.80;;;15.80;1.00;;;;;;5122581;28;20846;-47
2023/06/01 02:06:30;;;;;;;5.27;4.57;;;15.90;1.00;;;;;;5123835;28;20217;-48
2023/06/01 02:08:56;;;;;;;4.90;4.40;;;15.90;1.00;;;;;;5123776;28;20483;-48
2023/06/01 02:11:21;;;;;;;5.20;4.70;;;16.00;1.00;;;;;;5122824;28;20437;-46
2023/06/01 02:13:47;;;;;;;6.47;4.50;;;16.00;1.00;;;;;;5123507;28;20178;-46
2023/06/01 02:16:13;;;;;;;5.10;4.40;;;16.00;1.00;;;;;;5123762;28;20198;-51
2023/06/01 02:18:41;;;;;;;6.00;4.47;;;16.00;1.00;;;;;;5124667;28;20456;-48
2023/06/01 02:21:08;;;;;;;5.00;4.50;;;16.00;1.00;;;;;;5123926;28;20467;-46
2023/06/01 02:23:34;;;;;;;5.50;4.93;;;16.00;1.00;;;;;;5123257;28;20401;-47
2023/06/01 02:26:00;;;;;;;5.80;5.20;;;16.00;1.00;;;;;;5123859;28;20465;-49
2023/06/01 02:28:26;;;;;;;5.57;5.07;;;15.90;1.00;;;;;;5123814;28;20516;-46
2023/06/01 02:30:51;;;;;;;5.70;4.80;;;15.90;1.00;;;;;;5123142;28;20418;-46
2023/06/01 02:33:17;;;;;;;5.37;4.87;;;15.80;1.00;;;;;;5124004;28;20167;-49
2023/06/01 02:35:42;;;;;;;6.30;4.80;;;15.80;1.00;;;;;;5124272;28;20577;-47
2023/06/01 02:38:08;;;;;;;5.10;4.30;;;15.80;1.00;;;;;;5123927;28;20219;-47
2023/06/01 02:40:34;;;;;;;6.70;4.83;;;15.80;1.00;;;;;;5123665;28;20197;-46
2023/06/01 02:42:59;;;;;;;5.33;4.03;;;15.80;1.00;;;;;;5121777;28;20192;-46
2023/06/01 02:45:25;;;;;;;5.30;4.83;;;15.80;1.00;;;;;;5122507;28;20211;-47
2023/06/01 02:47:51;;;;;;;5.63;4.90;;;15.80;1.00;;;;;;5123273;28;20216;-46
2023/06/01 02:50:16;;;;;;;5.80;5.30;;;15.80;1.00;;;;;;5123069;28;20176;-46
2023/06/01 02:52:42;;;;;;;5.57;5.07;;;15.80;1.00;;;;;;5123228;28;20184;-46
2023/06/01 02:55:08;;;;;;;8.10;4.97;;;15.80;1.00;;;;;;5123560;28;20198;-47
2023/06/01 02:57:33;;;;;;;4.97;4.57;;;15.80;1.00;;;;;;5105700;28;20565;-47
2023/06/01 02:59:59;;;;;;;5.40;4.90;;;15.70;1.00;;;;;;5123096;28;20432;-48
2023/06/01 03:02:26;;;;;;;5.60;4.90;;;15.70;1.00;;;;;;5101436;28;20199;-51
2023/06/01 03:04:52;;;;;;;5.70;5.20;;;15.70;1.00;;;;;;5115451;28;20172;-49
2023/06/01 03:07:18;;;;;;;4.90;4.40;;;15.70;1.00;;;;;;5116781;28;20409;-48
2023/06/01 03:09:44;;;;;;;6.60;5.43;;;15.70;1.00;;;;;;5116830;28;20830;-47
2023/06/01 03:12:10;;;;;;;6.17;4.47;;;15.60;1.00;;;;;;5116724;28;20508;-48
2023/06/01 03:14:35;;;;;;;5.53;5.03;;;15.60;1.00;;;;;;5116617;28;20188;-47
2023/06/01 03:17:01;;;;;;;5.17;4.67;;;15.60;1.00;;;;;;5117272;28;20504;-48
2023/06/01 03:19:26;;;;;;;6.53;4.77;;;15.60;1.00;;;;;;5119307;28;20218;-47
2023/06/01 03:21:52;;;;;;;5.93;5.37;;;15.60;1.00;;;;;;5118140;28;20326;-49
2023/06/01 03:24:18;;;;;;;6.50;5.13;;;15.60;1.00;;;;;;5119440;28;20192;-48
2023/06/01 03:26:44;;;;;;;6.27;5.67;;;15.50;1.00;;;;;;5117585;28;20284;-46
2023/06/01 03:29:09;;;;;;;7.33;6.20;;;15.50;1.00;;;;;;5118109;28;20418;-49
2023/06/01 03:31:35;;;;;;;6.37;5.77;;;15.50;1.00;;;;;;5117899;28;20203;-47
2023/06/01 03:34:02;;;;;;;7.00;4.97;;;15.50;1.00;;;;;;5139387;27;20600;-49
2023/06/01 03:36:28;;;;;;;6.27;5.67;;;15.50;1.00;;;;;;5138701;27;20183;-49
2023/06/01 03:38:53;;;;;;;5.97;4.50;;;15.50;1.00;;;;;;5139468;27;20466;-46
2023/06/01 03:41:19;;;;;;;6.70;5.20;;;15.50;1.00;;;;;;5139448;27;20451;-47
2023/06/01 03:43:45;;;;;;;6.00;5.37;;;15.50;1.00;;;;;;5139593;27;20814;-48
2023/06/01 03:46:11;;;;;;;5.13;4.60;;;15.50;1.00;;;;;;5138772;27;20460;-49
2023/06/01 03:48:36;;;;;;;5.27;4.77;;;15.50;1.00;;;;;;5138408;27;20186;-48
2023/06/01 03:51:02;;;;;;;6.90;5.50;;;15.50;1.00;;;;;;5136921;27;20180;-47
2023/06/01 03:53:28;;;;;;;6.57;5.73;;;15.50;1.00;;;;;;5129988;27;20196;-48
2023/06/01 03:55:54;;;;;;;5.50;4.90;;;15.50;1.00;;;;;;5100514;28;20192;-47
2023/06/01 03:58:20;;;;;;;7.30;4.93;;;15.50;1.00;;;;;;5130498;27;20311;-49
2023/06/01 04:00:46;;;;;;;5.60;4.73;;;15.60;1.00;;;;;;5138966;27;20496;-47
2023/06/01 04:03:13;;;;;;;5.40;4.77;;;15.50;1.00;;;;;;5119719;27;20195;-47
2023/06/01 04:05:38;;;;;;;5.50;5.00;;;15.50;1.00;;;;;;5137868;27;20456;-48
2023/06/01 04:08:04;;;;;;;5.10;4.63;;;15.50;1.00;;;;;;5138472;27;20416;-48
2023/06/01 04:10:30;;;;;;;5.40;4.87;;;15.50;1.00;;;;;;5125417;27;20574;-50
2023/06/01 04:12:56;;;;;;;5.80;5.20;;;15.50;1.00;;;;;;5118641;28;20517;-48
2023/06/01 04:15:22;;;;;;;6.27;4.20;;;15.50;1.00;;;;;;5099578;28;20615;-47
2023/06/01 04:17:48;;;;;;;5.97;5.00;;;15.50;1.00;;;;;;5117813;28;20305;-48
2023/06/01 04:20:15;;;;;;;6.30;5.20;;;15.50;1.00;;;;;;5116066;28;20924;-47
2023/06/01 04:22:42;;;;;;;5.43;4.97;;;15.50;1.00;;;;;;5124181;27;20356;-47
2023/06/01 04:25:09;;;;;;;5.67;5.07;;;15.40;1.00;;;;;;5136220;27;20526;-48
2023/06/01 04:27:36;;;;;;;5.77;5.17;;;15.40;1.00;;;;;;5135445;27;20413;-50
2023/06/01 04:30:07;;;;;;;5.30;4.80;;;15.50;1.00;;;;;;5135705;27;20435;-48
2023/06/01 04:32:35;;;;;;;6.13;5.10;;;15.50;1.00;;;;;;5135838;27;20413;-48
2023/06/01 04:35:05;;;;;;;5.57;5.07;;;15.60;1.00;;;;;;5135519;27;20503;-47
2023/06/01 04:37:35;;;;;;;6.00;5.37;;;15.60;1.00;;;;;;5136726;27;20424;-47
2023/06/01 04:40:07;;;;;;;6.13;5.10;;;15.70;1.00;;;;;;5136640;27;20421;-47
2023/06/01 04:42:33;;;;;;;8.40;4.80;;;15.80;1.00;;;;;;5118952;27;20423;-49
2023/06/01 04:45:01;;;;;;;5.77;5.10;;;15.90;1.00;;;;;;5135754;27;20798;-48
2023/06/01 04:47:28;;;;;;;6.57;5.57;;;15.90;1.00;;;;;;5134128;27;20405;-48
2023/06/01 04:49:53;;;;;;;5.23;4.73;;;16.00;1.00;;;;;;5136262;27;20445;-52
2023/06/01 04:52:19;;;;;;;5.30;4.80;;;16.00;1.00;;;;;;5135218;27;20456;-47
2023/06/01 04:54:45;;;;;;;6.17;4.93;;;16.00;1.00;;;;;;5136141;27;20171;-48
2023/06/01 04:57:13;;;;;;;7.00;4.37;;;16.00;1.00;;;;;;5135547;27;20477;-46
2023/06/01 04:59:40;;;;;;;5.70;4.77;;;16.10;1.00;;;;;;5135976;27;20437;-47
2023/06/01 05:02:06;;;;;;;7.30;4.63;;;16.10;1.00;;;;;;5134411;27;20575;-46
2023/06/01 05:04:31;;;;;;;7.67;4.70;;;16.20;1.00;;;;;;5134524;27;20516;-52
2023/06/01 05:06:57;;;;;;;5.80;5.20;;;16.30;1.00;;;;;;5115587;27;20468;-49
2023/06/01 05:09:23;;;;;;;5.27;4.33;;;16.30;1.00;;;;;;5135011;27;20214;-48
2023/06/01 05:11:48;;;;;;;5.30;4.43;;;16.40;1.00;;;;;;5135715;27;20187;-47
2023/06/01 05:14:14;;;;;;;5.07;4.57;;;16.50;1.00;;;;;;5136675;27;20179;-47
2023/06/01 05:16:39;;;;;;;6.20;4.80;;;16.60;1.00;;;;;;5135185;27;20202;-47
2023/06/01 05:19:05;;;;;;;6.53;4.97;;;16.60;1.00;;;;;;5136343;27;20266;-49
2023/06/01 05:21:31;;;;;;;6.53;4.90;;;16.70;1.00;;;;;;5135247;27;20249;-49
2023/06/01 05:23:57;;;;;;;8.80;5.40;;;16.80;1.00;;;;;;5136334;27;20187;-47
2023/06/01 05:26:23;;;;;;;5.10;4.47;;;16.90;1.00;;;;;;5134900;27;20468;-48
2023/06/01 05:28:48;;;;;;;6.67;5.07;;;17.00;1.00;;;;;;5136855;27;20203;-48
2023/06/01 05:31:14;;;;;;;7.33;5.50;;;17.10;1.00;;;;;;5135413;27;20650;-50
2023/06/01 05:33:40;;;;;;;8.63;5.40;;;17.10;1.00;;;;;;5134679;27;20254;-50
2023/06/01 05:36:06;;;;;;;5.80;4.77;;;17.10;1.00;;;;;;5135974;27;20225;-48
2023/06/01 05:38:31;;;;;;;8.27;5.30;;;17.10;1.00;;;;;;5118343;27;20247;-47
2023/06/01 05:40:57;;;;;;;5.77;5.17;;;17.10;1.00;;;;;;5117538;27;20697;-49
2023/06/01 05:43:22;;;;;;;7.80;5.00;;;17.00;1.00;;;;;;5135946;27;20217;-47
2023/06/01 05:45:48;;;;;;;6.80;4.70;;;17.10;1.00;;;;;;5134444;27;20222;-50
2023/06/01 05:48:14;;;;;;;7.40;5.50;;;17.20;1.00;;;;;;5135295;27;20842;-51
2023/06/01 05:50:41;;;;;;;6.23;5.10;;;17.40;1.00;;;;;;5135262;28;20271;-47
2023/06/01 05:53:08;;;;;;;6.23;4.77;;;17.40;1.00;;;;;;5135369;28;20448;-48
2023/06/01 05:55:33;;;;;;;7.10;5.40;;;17.50;1.00;;;;;;5134743;28;20515;-46
2023/06/01 05:57:59;;;;;;;8.53;6.00;;;17.60;1.00;;;;;;5115915;28;20594;-47
2023/06/01 06:00:24;;;;;;;6.33;5.00;;;17.70;1.00;;;;;;5133105;28;20576;-45
2023/06/01 06:02:50;;;;;;;5.87;4.80;;;17.80;1.00;;;;;;5133089;28;20194;-48
2023/06/01 06:05:16;;;;;;;5.57;5.07;;;17.90;1.00;;;;;;5132023;28;20298;-48
2023/06/01 06:08:00;;;;;;;6.00;4.87;;;18.10;1.00;;;;;;5133182;28;20469;-52
2023/06/01 06:10:38;;;;;;;6.17;4.57;;;18.30;1.00;;;;;;5134556;28;20194;-49
2023/06/01 06:13:30;;;;;;;8.97;5.07;;;18.60;1.00;;;;;;5135255;28;20432;-48
2023/06/01 06:15:56;;;;;;;7.07;5.17;;;18.70;1.00;;;;;;5117510;28;20433;-49
2023/06/01 06:18:21;;;;;;;6.77;5.00;;;18.90;1.00;;;;;;5135306;28;20443;-49
2023/06/01 06:20:47;;;;;;;5.87;4.43;;;19.00;1.00;;;;;;5137110;28;20418;-49
2023/06/01 06:23:13;;;;;;;8.97;4.87;;;19.20;1.00;;;;;;5136869;28;20560;-46
2023/06/01 06:25:40;;;;;;;7.00;4.40;;;19.40;1.00;;;;;;5136486;28;20210;-48
2023/06/01 06:28:06;;;;;;;6.80;5.20;;;19.50;1.00;;;;;;5135450;28;20183;-48
2023/06/01 06:30:31;;;;;;;6.40;4.57;;;19.60;1.00;;;;;;5135516;28;20575;-46
2023/06/01 06:32:57;;;;;;;5.60;4.33;;;19.70;1.00;;;;;;5134329;28;20548;-50
2023/06/01 06:35:22;;;;;;;5.10;4.17;;;19.80;1.00;;;;;;5136367;28;20175;-47
2023/06/01 06:37:48;;;;;;;6.40;5.30;;;19.90;1.00;;;;;;5137619;27;20576;-47
2023/06/01 06:40:14;;;;;;;7.07;4.60;;;20.00;1.00;;;;;;5140167;27;20256;-46
2023/06/01 06:42:40;;;;;;;7.17;5.10;;;20.10;1.00;;;;;;5138142;27;20172;-46
2023/06/01 06:45:06;;;;;;;5.90;4.77;;;20.10;1.00;;;;;;5136575;27;20507;-47
2023/06/01 06:47:32;;;;;;;6.50;5.40;;;20.30;1.00;;;;;;5136588;27;20409;-46
2023/06/01 06:49:57;;;;;;;6.23;4.50;;;20.40;1.00;;;;;;5137161;27;20481;-46
2023/06/01 06:52:23;;;;;;;6.70;5.20;;;20.60;1.00;;;;;;5136714;27;20175;-48
2023/06/01 06:54:48;;;;;;;6.90;4.83;;;20.80;1.00;;;;;;5117944;27;20194;-47
2023/06/01 06:57:14;;;;;;;4.70;4.27;;;21.10;1.00;;;;;;5133924;27;20175;-48
2023/06/01 06:59:40;;;;;;;7.63;5.13;;;21.10;1.00;;;;;;5133958;27;20228;-48
2023/06/01 07:02:06;;;;;;;7.70;4.73;;;21.20;1.00;;;;;;5134937;27;20194;-47
2023/06/01 07:04:31;;;;;;;7.87;5.57;;;21.30;1.00;;;;;;5102275;27;20186;-47
2023/06/01 07:06:57;;;;;;;5.20;4.50;;;21.50;1.00;;;;;;5117530;27;20250;-45
2023/06/01 07:09:23;;;;;;;7.00;4.80;;;21.60;1.00;;;;;;5135725;27;20171;-45
2023/06/01 07:11:48;;;;;;;5.00;4.10;;;21.80;1.00;;;;;;5136988;27;20191;-48
2023/06/01 07:14:14;;;;;;;10.50;4.93;;;22.00;1.00;;;;;;5138768;27;20187;-46
2023/06/01 07:16:40;;;;;;;7.50;4.67;;;22.20;1.00;;;;;;5120650;27;20422;-46
2023/06/01 07:19:07;;;;;;;7.00;4.70;;;22.40;1.00;;;;;;5138647;27;20501;-44
2023/06/01 07:21:32;;;;;;;6.63;4.70;;;22.50;1.00;;;;;;5138710;27;20238;-45
2023/06/01 07:23:58;;;;;;;6.67;4.73;;;22.70;1.00;;;;;;5138155;27;20438;-49
2023/06/01 07:26:28;;;;;;;5.30;4.43;;;22.90;1.00;;;;;;5137476;27;20207;-47
2023/06/01 07:28:56;;;;;;;5.73;5.07;;;23.20;1.00;;;;;;5138030;27;20304;-46
2023/06/01 07:31:22;;;;;;;9.10;5.87;;;23.50;1.00;;;;;;5137923;27;20412;-50
2023/06/01 07:33:47;;;;;;;8.53;5.10;;;23.70;1.00;;;;;;5139400;27;20432;-47
2023/06/01 07:36:14;;;;;;;5.90;5.23;;;23.90;1.00;;;;;;5138485;27;20432;-45
2023/06/01 07:38:40;;;;;;;6.10;4.57;;;24.10;1.00;;;;;;5135881;27;20545;-46
2023/06/01 07:41:06;;;;;;;5.80;4.83;;;24.20;1.00;;;;;;5137859;27;20436;-53
2023/06/01 07:43:31;;;;;;;4.67;4.13;;;24.30;1.00;;;;;;5136548;27;20424;-47
2023/06/01 07:45:57;;;;;;;6.63;4.67;;;24.50;1.00;;;;;;5137177;27;20222;-47
2023/06/01 07:48:22;;;;;;;6.70;5.80;;;24.60;1.00;;;;;;5137282;27;20287;-50
2023/06/01 07:50:48;;;;;;;5.53;5.03;;;24.80;1.00;;;;;;5136291;27;20276;-46
2023/06/01 07:53:14;;;;;;;5.93;5.27;;;24.90;1.00;;;;;;5118465;27;20553;-48
2023/06/01 07:55:40;;;;;;;9.80;5.50;;;25.00;1.00;;;;;;5134777;27;20438;-46
2023/06/01 07:58:06;;;;;;;6.63;5.87;;;25.10;1.00;;;;;;5137425;27;20538;-47
2023/06/01 08:00:32;;;;;;;7.43;5.73;;;25.20;1.00;;;;;;5138186;27;20468;-47
2023/06/01 08:02:58;;;;;;;6.40;5.10;;;25.30;1.00;;;;;;5136927;27;20191;-46
2023/06/01 08:05:24;;;;;;;6.60;5.90;;;25.40;1.00;;;;;;5136676;27;20202;-47
2023/06/01 08:07:50;;;;;;;11.70;5.80;;;25.60;1.00;;;;;;5136820;27;20497;-46
2023/06/01 08:10:16;;;;;;;6.10;5.50;;;25.80;1.00;;;;;;5138016;27;20187;-47
2023/06/01 08:12:42;;;;;;;8.73;6.10;;;26.00;1.00;;;;;;5138174;27;20183;-46
2023/06/01 08:15:10;;;;;;;6.07;5.17;;;26.10;1.00;;;;;;5136134;27;20575;-47
2023/06/01 08:17:35;;;;;;;6.70;5.90;;;26.10;1.00;;;;;;5136612;27;20435;-48
2023/06/01 08:20:07;;;;;;;5.93;5.33;;;26.20;1.00;;;;;;5137902;27;20408;-47
2023/06/01 08:22:33;;;;;;;6.23;5.63;;;26.30;1.00;;;;;;5136513;27;20211;-46
2023/06/01 08:24:59;;;;;;;6.50;5.40;;;26.50;1.00;;;;;;5137597;27;20431;-46
2023/06/01 08:27:25;;;;;;;8.40;6.63;;;26.70;1.00;;;;;;5138049;27;20845;-47
2023/06/01 08:29:50;;;;;;;5.97;5.40;;;26.90;1.00;;;;;;5119197;27;20473;-47
2023/06/01 08:32:17;;;;;;;7.20;5.77;;;27.20;1.00;;;;;;5136921;27;20190;-47
2023/06/01 08:34:44;;;;;;;8.97;5.97;;;27.40;1.00;;;;;;5137300;27;20187;-47
2023/06/01 08:37:10;;;;;;;8.97;6.23;;;27.60;1.00;;;;;;5136038;27;20420;-47
2023/06/01 08:39:36;;;;;;;6.90;6.00;;;27.80;1.00;;;;;;5136223;27;20436;-46
2023/06/01 08:42:08;;;;;;;9.67;7.20;;;27.90;1.00;;;;;;5134866;27;20696;-48
2023/06/01 08:44:37;;;;;;;7.17;5.77;;;27.90;1.00;;;;;;5136288;27;20468;-49
2023/06/01 08:47:03;;;;;;;6.30;5.80;;;28.00;1.00;;;;;;5135434;27;20479;-46
2023/06/01 08:49:30;;;;;;;7.40;6.50;;;28.00;1.00;;;;;;5102378;27;20477;-48
2023/06/01 08:51:56;;;;;;;7.13;5.90;;;28.10;1.00;;;;;;5138381;27;20432;-49
2023/06/01 08:54:22;;;;;;;7.50;6.80;;;28.30;1.00;;;;;;5118525;27;20515;-47
2023/06/01 08:56:48;;;;;;;6.27;5.70;;;28.30;1.00;;;;;;5102316;27;20582;-48
2023/06/01 08:59:14;;;;;;;6.67;6.10;;;28.50;1.00;;;;;;5118171;27;20190;-50
2023/06/01 09:01:40;;;;;;;6.00;5.50;;;28.70;1.00;;;;;;5133504;27;20823;-47
2023/06/01 09:04:05;;;;;;;6.70;6.07;;;28.80;1.00;;;;;;5116512;27;20182;-49
2023/06/01 09:06:31;;;;;;;7.33;6.60;;;28.90;1.00;;;;;;5136978;27;20254;-47
2023/06/01 09:08:57;;;;;;;7.67;5.73;;;28.90;1.00;;;;;;5127963;27;20199;-46
2023/06/01 09:11:25;;;;;;;6.83;5.87;;;29.20;1.00;;;;;;5119176;27;20187;-48
2023/06/01 09:13:51;;;;;;;9.23;6.93;;;29.20;1.00;;;;;;5136155;27;20501;-48
2023/06/01 09:16:16;;;;;;;10.57;6.77;;;29.40;1.00;;;;;;5136879;27;20604;-47
2023/06/01 09:18:55;;;;;;;6.53;5.93;;;29.50;1.00;;;;;;5118706;27;20344;-47
2023/06/01 09:21:20;;;;;;;6.63;6.03;;;29.90;1.00;;;;;;5136643;27;20575;-49
2023/06/01 09:23:47;;;;;;;6.80;6.20;;;30.00;1.00;;;;;;5136033;27;20380;-49
2023/06/01 09:26:14;;;;;;;7.83;6.40;;;30.10;1.00;;;;;;5136530;27;20214;-48
2023/06/01 09:28:55;;;;;;;7.53;6.70;;;30.20;1.00;;;;;;5135562;27;20464;-51
2023/06/01 09:31:41;;;;;;;8.40;7.60;;;30.40;1.00;;;;;;5136450;27;20428;-48
2023/06/01 09:34:08;;;;;;;9.07;7.00;;;30.50;1.00;;;;;;5117845;27;20399;-50
2023/06/01 09:36:35;;;;;;;7.87;7.10;;;30.60;1.00;;;;;;5136228;27;20554;-48
2023/06/01 09:39:07;;;;;;;7.87;6.90;;;30.70;1.00;;;;;;5099961;27;20519;-48
2023/06/01 09:41:45;;;;;;;8.40;6.97;;;30.90;1.00;;;;;;5134945;27;20417;-48
2023/06/01 09:44:15;;;;;;;7.07;6.47;;;30.70;1.00;;;;;;5133972;27;20788;-48
2023/06/01 09:46:48;;;;;;;8.70;7.67;;;30.50;1.00;;;;;;5135745;27;20556;-48
2023/06/01 09:49:21;;;;;;;7.53;6.83;;;30.40;1.00;;;;;;5135819;27;20505;-48
2023/06/01 09:51:47;;;;;;;9.00;7.60;;;30.60;1.00;;;;;;5133961;28;20567;-48
2023/06/01 09:54:28;;;;;;;8.73;7.70;;;30.80;1.00;;;;;;5115328;28;20489;-48
2023/06/01 09:56:54;;;;;;;8.37;7.20;;;30.60;1.00;;;;;;5117675;28;20839;-47
2023/06/01 09:59:21;;;;;;;8.23;7.47;;;30.80;1.00;;;;;;5135495;28;20421;-49
2023/06/01 10:01:51;;;;;;;7.50;6.80;;;31.10;1.00;;;;;;5115877;28;20836;-51
2023/06/01 10:04:27;;;;;;;7.30;6.70;;;31.50;1.00;;;;;;5135716;28;20420;-47
2023/06/01 10:06:55;;;;;;;8.40;7.60;;;31.70;1.00;;;;;;5136203;28;20471;-51
2023/06/01 10:09:24;;;;;;;8.27;7.57;;;32.00;1.00;;;;;;5135316;28;20410;-48
2023/06/01 10:11:53;;;;;;;8.37;7.03;;;32.10;1.00;;;;;;5136329;27;20405;-47
2023/06/01 10:14:19;;;;;;;7.63;6.93;;;32.10;1.00;;;;;;5141103;27;20409;-49
2023/06/01 10:16:45;;;;;;;7.77;7.00;;;31.80;1.00;;;;;;5140058;27;20418;-47
2023/06/01 10:19:11;;;;;;;8.97;6.73;;;31.70;1.00;;;;;;5139353;27;20406;-49
2023/06/01 10:21:39;;;;;;;7.70;6.60;;;32.00;1.00;;;;;;5138895;27;20230;-49
2023/06/01 10:24:06;;;;;;;6.93;6.00;;;32.40;1.00;;;;;;5139194;27;20564;-47
2023/06/01 10:26:36;;;;;;;7.33;6.73;;;32.70;1.00;;;;;;5120159;27;20435;-47
2023/06/01 10:29:02;;;;;;;7.40;6.80;;;32.40;1.00;;;;;;5119807;27;20490;-46
2023/06/01 10:31:41;;;;;;;7.03;6.43;;;32.20;1.00;;;;;;5120119;27;20453;-49
2023/06/01 10:34:09;;;;;;;8.43;7.70;;;31.90;1.00;;;;;;5137932;27;20511;-47
2023/06/01 10:36:53;;;;;;;9.00;7.33;;;31.60;1.00;;;;;;5138949;27;20406;-52
2023/06/01 10:39:29;;;;;;;6.90;6.30;;;31.60;1.00;;;;;;5138547;27;20539;-48
2023/06/01 10:42:18;;;;;;;8.23;7.40;;;31.80;1.00;;;;;;5139365;27;20434;-46
2023/06/01 10:44:47;;;;;;;7.73;6.60;;;32.20;1.00;;;;;;5126999;27;20521;-49
2023/06/01 10:47:12;;;;;;;6.80;6.07;;;32.40;1.00;;;;;;5138058;27;20445;-51
2023/06/01 10:49:47;;;;;;;6.97;6.37;;;32.50;1.00;;;;;;5139180;27;20838;-54
2023/06/01 10:52:28;;;;;;;6.23;5.50;;;32.70;1.00;;;;;;5138487;27;20273;-51
2023/06/01 10:55:16;;;;;;;7.00;6.40;;;32.90;1.00;;;;;;5139603;27;20416;-53
2023/06/01 10:57:45;;;;;;;6.80;6.10;;;32.50;1.00;;;;;;5127366;27;20422;-47
2023/06/01 11:00:22;;;;;;;7.67;6.90;;;32.10;1.00;;;;;;5120503;27;20523;-49
2023/06/01 11:02:50;;;;;;;7.07;6.20;;;31.90;1.00;;;;;;5120365;27;20403;-51
2023/06/01 11:05:39;;;;;;;7.30;6.70;;;31.60;1.00;;;;;;5118598;27;20464;-52
2023/06/01 11:08:11;;;;;;;6.67;6.10;;;31.60;1.00;;;;;;5137154;27;20479;-56
2023/06/01 11:11:03;;;;;;;6.90;6.30;;;32.10;1.00;;;;;;5136827;27;20511;-50
2023/06/01 11:13:39;;;;;;;7.20;6.50;;;32.50;1.00;;;;;;5136544;27;20496;-50
2023/06/01 11:16:09;;;;;;;7.13;6.53;;;32.60;1.00;;;;;;5136782;27;20448;-51
2023/06/01 11:18:41;;;;;;;7.20;6.40;;;32.60;1.00;;;;;;5134778;27;20837;-52
2023/06/01 11:21:23;;;;;;;6.90;6.20;;;32.60;1.00;;;;;;5135340;27;21026;-49
2023/06/01 11:23:49;;;;;;;7.50;6.80;;;32.60;1.00;;;;;;5134264;27;20442;-53
2023/06/01 11:26:16;;;;;;;9.23;6.90;;;32.70;1.00;;;;;;5135824;27;21090;-51
2023/06/01 11:28:42;;;;;;;7.20;6.30;;;32.50;1.00;;;;;;5136672;27;20179;-50
2023/06/01 11:31:18;;;;;;;6.73;6.07;;;32.30;1.00;;;;;;5138132;27;20420;-48
2023/06/01 11:33:56;;;;;;;7.93;7.13;;;31.90;1.00;;;;;;5137736;27;20856;-50
2023/06/01 11:36:26;;;;;;;8.57;7.27;;;31.60;1.00;;;;;;5138226;27;20424;-50
2023/06/01 11:38:53;;;;;;;7.13;6.43;;;30.70;1.00;;;;;;5135904;27;20399;-48
2023/06/01 11:41:26;;;;;;;8.63;7.10;;;30.90;1.00;;;;;;5137945;27;20675;-48
2023/06/01 11:43:56;;;;;;;7.23;6.63;;;31.50;1.00;;;;;;5137993;27;20460;-48
2023/06/01 11:46:22;;;;;;;7.90;7.10;;;32.00;1.00;;;;;;5118789;27;20875;-52
2023/06/01 11:49:05;;;;;;;6.83;6.13;;;32.50;1.00;;;;;;5118137;27;20497;-48
2023/06/01 11:51:33;;;;;;;7.13;6.43;;;32.90;1.00;;;;;;5116221;28;20407;-50
2023/06/01 11:54:03;;;;;;;7.77;6.83;;;33.30;1.00;;;;;;5116181;28;20475;-49
2023/06/01 11:56:33;;;;;;;7.23;6.63;;;33.40;1.00;;;;;;5117762;28;20420;-52
2023/06/01 11:59:00;;;;;;;6.90;6.30;;;33.80;1.00;;;;;;5115869;28;20389;-50
2023/06/01 12:01:26;;;;;;;7.20;6.20;;;34.20;1.00;;;;;;5114838;28;20495;-52
2023/06/01 12:03:52;;;;;;;6.37;5.87;;;34.60;1.00;;;;;;5117111;28;20702;-51
2023/06/01 12:06:23;;;;;;;7.27;6.60;;;35.00;1.00;;;;;;5098969;28;20885;-49
2023/06/01 12:08:54;;;;;;;7.33;6.73;;;35.40;1.00;;;;;;5116773;28;20384;-48
2023/06/01 12:11:26;;;;;;;6.77;6.17;;;35.70;1.00;;;;;;5099169;28;20638;-48
2023/06/01 12:13:53;;;;;;;7.80;7.10;;;35.70;1.00;;;;;;5115919;28;20400;-50
2023/06/01 12:16:19;;;;;;;7.63;6.83;;;35.40;1.00;;;;;;5097674;28;20935;-48
2023/06/01 12:18:44;;;;;;;6.93;6.40;;;34.80;1.00;;;;;;5096547;28;20449;-57
2023/06/01 12:21:14;;;;;;;8.53;6.73;;;34.20;1.00;;;;;;5115167;28;20621;-50
2023/06/01 12:23:41;;;;;;;7.50;6.90;;;34.10;1.00;;;;;;5114057;28;20546;-48
2023/06/01 12:26:08;;;;;;;7.53;6.83;;;34.30;1.00;;;;;;5097891;28;20461;-52
2023/06/01 12:28:54;;;;;;;7.50;6.77;;;34.80;1.00;;;;;;5115365;28;20418;-49
2023/06/01 12:31:20;;;;;;;7.60;6.73;;;35.20;1.00;;;;;;5097074;28;20739;-49
2023/06/01 12:33:48;;;;;;;7.63;6.93;;;35.70;1.00;;;;;;5116814;28;20478;-51
2023/06/01 12:36:33;;;;;;;6.50;5.90;;;36.20;1.00;;;;;;5114440;28;20495;-49
2023/06/01 12:38:59;;;;;;;8.00;7.20;;;36.70;1.00;;;;;;5115844;28;20407;-49
2023/06/01 12:41:25;;;;;;;7.10;6.50;;;36.80;1.00;;;;;;5115826;28;20951;-49
2023/06/01 12:43:52;;;;;;;7.60;7.00;;;36.60;1.00;;;;;;5117103;28;20404;-52
2023/06/01 12:46:22;;;;;;;7.30;6.70;;;36.50;1.00;;;;;;5099308;28;20572;-50
2023/06/01 12:48:48;;;;;;;7.10;6.50;;;36.00;1.00;;;;;;5097939;28;20749;-50
2023/06/01 12:51:15;;;;;;;7.60;6.80;;;36.00;1.00;;;;;;5114705;28;20472;-50
2023/06/01 12:53:42;;;;;;;7.37;6.60;;;35.90;1.00;;;;;;5114750;28;20441;-48
2023/06/01 12:56:08;;;;;;;7.07;6.40;;;36.00;1.00;;;;;;5116091;28;20957;-49
2023/06/01 12:58:34;;;;;;;6.80;6.10;;;36.20;1.00;;;;;;5113513;28;20430;-52
2023/06/01 13:01:00;;;;;;;8.10;6.57;;;36.20;1.00;;;;;;5113210;28;20412;-53